< < Back
Terminal Aerodrome Forecast


Current Version              Previous Versions:   1  2  3  4  5  6  7  8  9  

Terminal Aerodrome Forecast

759
FTUS42 KJAX 150500
TAFJAX
TAF
KJAX 150520Z 1506/1606 16003KT P6SM BKN250
     FM151600 26004KT P6SM VCSH SCT035 SCT250
     FM151900 13008KT P6SM VCTS SCT030CB BKN050
     FM160000 19004KT P6SM SCT150 BKN250=



Latest METAR

330
SAUS80 KWBC 160000
MTRJAX
METAR KJAX 152356Z 32004KT 10SM -TSRA BKN032CB BKN048 OVC075 24/24 A3012
RMK AO2 SLP200 FRQ LTGICCG VC N-NE TS VC N-NE MOV E P0008
60008 T02440239 10333 20239 53020


USA.gov is the U.S. government's official web portal to all federal, state and local government web resources and services.